Time;durP1;ratioP1;P1;durP2;ratioP2;P2;SDS_P1;SDS_P2;PMS_P1;PMS_P2;Temp;Humidity;BMP_temperature;BMP_pressure;BME280_temperature;BME280_humidity;BME280_pressure;Samples;Min_cycle;Max_cycle;Signal;HPM_P1;HPM_P2
2023/05/02 00:02:01;;;;;;;2.50;1.75;;;9.90;99.90;;;;;;5074955;28;20082;-76
2023/05/02 00:04:27;;;;;;;3.00;1.80;;;9.90;99.90;;;;;;5065043;28;20028;-76
2023/05/02 00:06:53;;;;;;;2.47;1.70;;;9.90;99.90;;;;;;5075872;28;20290;-76
2023/05/02 00:09:20;;;;;;;3.15;2.08;;;9.90;99.90;;;;;;5075284;28;20110;-76
2023/05/02 00:11:45;;;;;;;2.25;1.30;;;9.90;99.90;;;;;;5086558;28;20423;-76
2023/05/02 00:14:11;;;;;;;2.53;1.30;;;9.80;99.90;;;;;;5083561;28;20052;-76
2023/05/02 00:16:37;;;;;;;2.70;1.27;;;9.80;99.90;;;;;;5083599;28;20039;-76
2023/05/02 00:19:05;;;;;;;2.53;1.45;;;9.80;99.90;;;;;;5079033;28;20052;-76
2023/05/02 00:21:31;;;;;;;2.53;1.40;;;9.80;99.90;;;;;;5081733;28;20028;-76
2023/05/02 00:23:58;;;;;;;2.03;1.20;;;9.80;99.90;;;;;;5080027;28;20024;-76
2023/05/02 00:26:23;;;;;;;2.47;1.50;;;9.80;99.90;;;;;;5082924;28;20089;-76
2023/05/02 00:28:49;;;;;;;2.13;1.42;;;9.90;99.90;;;;;;5081590;28;20028;-76
2023/05/02 00:31:15;;;;;;;2.03;1.17;;;9.80;99.90;;;;;;5085368;28;20491;-77
2023/05/02 00:33:41;;;;;;;1.88;1.05;;;9.80;99.90;;;;;;5080204;28;20036;-76
2023/05/02 00:36:18;;;;;;;1.83;1.00;;;9.90;99.90;;;;;;5081181;28;20020;-76
2023/05/02 00:38:44;;;;;;;1.52;0.98;;;9.80;99.90;;;;;;5082432;28;20071;-77
2023/05/02 00:41:10;;;;;;;1.02;0.80;;;9.90;99.90;;;;;;5079981;28;20032;-76
2023/05/02 00:43:38;;;;;;;1.45;0.90;;;9.90;99.90;;;;;;5086528;28;20032;-76
2023/05/02 00:46:05;;;;;;;1.83;0.80;;;9.90;99.90;;;;;;5084404;28;20039;-76
2023/05/02 00:48:31;;;;;;;1.48;0.90;;;9.80;99.90;;;;;;5082328;28;20035;-76
2023/05/02 00:50:57;;;;;;;1.45;0.90;;;9.80;99.90;;;;;;5073993;28;20097;-77
2023/05/02 00:53:23;;;;;;;2.22;1.25;;;9.90;99.90;;;;;;5090908;28;20021;-77
2023/05/02 00:55:49;;;;;;;2.50;0.90;;;9.90;99.90;;;;;;5077187;28;20033;-76
2023/05/02 00:58:18;;;;;;;1.38;0.80;;;9.80;99.90;;;;;;5082477;28;20483;-76
2023/05/02 01:01:15;;;;;;;1.92;1.10;;;9.80;99.90;;;;;;5082206;28;20024;-77
2023/05/02 01:04:26;;;;;;;1.45;0.73;;;9.80;99.90;;;;;;5076362;28;20473;-77
2023/05/02 01:07:17;;;;;;;1.17;0.73;;;9.70;99.90;;;;;;5029476;28;20417;-76
2023/05/02 01:10:14;;;;;;;1.50;0.80;;;9.80;99.90;;;;;;5079182;28;20114;-76
2023/05/02 01:13:00;;;;;;;1.45;0.75;;;9.80;99.90;;;;;;5087527;28;20450;-76
2023/05/02 01:15:27;;;;;;;2.17;0.93;;;9.70;99.90;;;;;;5089194;28;20039;-76
2023/05/02 01:17:55;;;;;;;1.52;0.90;;;9.70;99.90;;;;;;5069967;28;20021;-76
2023/05/02 01:20:25;;;;;;;1.38;0.90;;;9.70;99.90;;;;;;5083529;28;20028;-76
2023/05/02 01:22:53;;;;;;;1.40;0.80;;;9.70;99.90;;;;;;5085368;28;20046;-76
2023/05/02 01:25:31;;;;;;;1.88;1.08;;;9.70;99.90;;;;;;5075175;28;20020;-76
2023/05/02 01:28:23;;;;;;;1.77;1.00;;;9.70;99.90;;;;;;5078247;28;20473;-76
2023/05/02 01:30:50;;;;;;;;;;;9.70;99.90;;;;;;5045372;28;20143;-77
2023/05/02 01:33:17;;;;;;;1.40;0.90;;;9.70;99.90;;;;;;5086845;28;19962;-77
2023/05/02 01:35:45;;;;;;;1.52;1.00;;;9.60;99.90;;;;;;5086991;28;20036;-77
2023/05/02 01:38:14;;;;;;;2.05;0.88;;;9.60;99.90;;;;;;5084311;28;20033;-76
2023/05/02 01:40:43;;;;;;;1.20;0.80;;;9.60;99.90;;;;;;5079093;28;20034;-77
2023/05/02 01:43:11;;;;;;;1.40;0.80;;;9.60;99.90;;;;;;5078086;28;20025;-77
2023/05/02 01:45:39;;;;;;;1.30;0.90;;;9.60;99.90;;;;;;5078174;28;20749;-77
2023/05/02 01:48:07;;;;;;;1.50;0.93;;;9.50;99.90;;;;;;5080550;28;20085;-77
2023/05/02 01:50:35;;;;;;;1.75;0.75;;;9.50;99.90;;;;;;5071925;28;20029;-77
2023/05/02 01:53:03;;;;;;;1.05;0.75;;;9.50;99.90;;;;;;5078301;28;20020;-76
2023/05/02 01:55:32;;;;;;;1.13;0.80;;;9.50;99.90;;;;;;5083876;28;20020;-76
2023/05/02 01:57:59;;;;;;;1.77;0.88;;;9.50;99.90;;;;;;5078327;28;20020;-77
2023/05/02 02:00:26;;;;;;;0.93;0.70;;;9.50;99.90;;;;;;5085006;28;20059;-76
2023/05/02 02:02:54;;;;;;;1.50;0.90;;;9.60;99.90;;;;;;5085416;28;20040;-76
2023/05/02 02:05:22;;;;;;;1.70;0.93;;;9.60;99.90;;;;;;5077550;28;20028;-77
2023/05/02 02:07:48;;;;;;;1.83;0.98;;;9.60;99.90;;;;;;5075607;28;20051;-76
2023/05/02 02:10:13;;;;;;;1.63;0.88;;;9.60;99.90;;;;;;5076983;28;20492;-77
2023/05/02 02:12:44;;;;;;;1.85;0.88;;;9.50;99.90;;;;;;5075680;28;20500;-76
2023/05/02 02:15:18;;;;;;;2.35;1.10;;;9.50;99.90;;;;;;5075054;28;20056;-77
2023/05/02 02:18:09;;;;;;;1.42;0.70;;;9.50;99.90;;;;;;5082716;28;20036;-77
2023/05/02 02:20:36;;;;;;;1.58;0.90;;;9.60;99.90;;;;;;5070036;28;20029;-76
2023/05/02 02:23:07;;;;;;;1.10;0.70;;;9.50;99.90;;;;;;5076425;28;20058;-76
2023/05/02 02:25:33;;;;;;;1.98;0.90;;;9.50;99.90;;;;;;5076043;28;20017;-76
2023/05/02 02:28:00;;;;;;;2.58;0.80;;;9.60;99.90;;;;;;5084627;28;20024;-76
2023/05/02 02:30:25;;;;;;;2.08;1.08;;;9.50;99.90;;;;;;5081074;28;20036;-77
2023/05/02 02:32:51;;;;;;;1.83;1.05;;;9.60;99.90;;;;;;5078588;28;20024;-75
2023/05/02 02:35:17;;;;;;;2.58;1.40;;;9.50;99.90;;;;;;5077799;28;20024;-77
2023/05/02 02:37:56;;;;;;;2.10;1.20;;;9.50;99.90;;;;;;5078435;28;20432;-79
2023/05/02 02:40:51;;;;;;;1.60;1.00;;;9.50;99.90;;;;;;5082600;28;20020;-77
2023/05/02 02:43:29;;;;;;;1.50;0.80;;;9.50;99.90;;;;;;5084000;28;20020;-76
2023/05/02 02:46:01;;;;;;;1.60;1.00;;;9.50;99.90;;;;;;5081109;28;20435;-76
2023/05/02 02:48:57;;;;;;;1.35;0.80;;;9.50;99.90;;;;;;5086928;28;20438;-78
2023/05/02 02:51:37;;;;;;;2.10;0.90;;;9.50;99.90;;;;;;5068552;28;20516;-76
2023/05/02 02:54:38;;;;;;;1.50;0.80;;;9.50;99.90;;;;;;5091055;28;20034;-78
2023/05/02 02:57:18;;;;;;;2.05;1.00;;;9.40;99.90;;;;;;5081100;28;20051;-78
2023/05/02 03:00:18;;;;;;;1.38;0.82;;;9.40;99.90;;;;;;5086765;28;20024;-76
2023/05/02 03:02:46;;;;;;;1.55;0.90;;;9.40;99.90;;;;;;5096397;28;20158;-76
2023/05/02 03:05:13;;;;;;;1.15;0.80;;;9.50;99.90;;;;;;5077020;28;20028;-77
2023/05/02 03:07:39;;;;;;;1.90;0.95;;;9.40;99.90;;;;;;5074328;28;20032;-76
2023/05/02 03:10:06;;;;;;;1.20;0.80;;;9.40;99.90;;;;;;5085988;28;20445;-78
2023/05/02 03:12:31;;;;;;;1.10;0.70;;;9.40;99.90;;;;;;5087297;28;20103;-76
2023/05/02 03:15:29;;;;;;;1.17;0.77;;;9.30;99.90;;;;;;5088978;28;20108;-76
2023/05/02 03:17:55;;;;;;;1.73;0.90;;;9.30;99.90;;;;;;5074925;28;20021;-76
2023/05/02 03:20:21;;;;;;;1.33;0.85;;;9.30;99.90;;;;;;5074648;28;20543;-77
2023/05/02 03:22:46;;;;;;;0.90;0.70;;;9.30;99.90;;;;;;5074815;28;20029;-76
2023/05/02 03:25:12;;;;;;;1.00;0.70;;;9.30;99.90;;;;;;5076429;28;20489;-76
2023/05/02 03:27:38;;;;;;;1.25;0.80;;;9.30;99.90;;;;;;5080875;28;20403;-76
2023/05/02 03:30:04;;;;;;;0.80;0.50;;;9.20;99.90;;;;;;5078642;28;20044;-75
2023/05/02 03:32:30;;;;;;;0.65;0.52;;;9.20;99.90;;;;;;5086365;28;20123;-75
2023/05/02 03:34:57;;;;;;;1.23;0.63;;;9.20;99.90;;;;;;5075749;28;20111;-75
2023/05/02 03:37:23;;;;;;;0.98;0.57;;;9.20;99.90;;;;;;5076424;28;20380;-75
2023/05/02 03:39:49;;;;;;;1.02;0.60;;;9.20;99.90;;;;;;5076465;28;20043;-76
2023/05/02 03:42:15;;;;;;;0.85;0.55;;;9.30;99.90;;;;;;5058784;28;20024;-75
2023/05/02 03:44:40;;;;;;;1.73;0.80;;;9.20;99.90;;;;;;5083434;28;20376;-76
2023/05/02 03:47:06;;;;;;;1.75;1.02;;;9.30;99.90;;;;;;5086000;28;20159;-76
2023/05/02 03:49:35;;;;;;;2.80;1.30;;;9.30;99.90;;;;;;5075769;28;20051;-76
2023/05/02 03:52:01;;;;;;;2.35;1.30;;;9.30;99.90;;;;;;5076776;28;20024;-76
2023/05/02 03:54:30;;;;;;;3.00;1.20;;;9.30;99.90;;;;;;5081041;28;20490;-76
2023/05/02 03:56:56;;;;;;;1.33;0.80;;;9.30;99.90;;;;;;5085492;28;20031;-76
2023/05/02 03:59:22;;;;;;;1.70;0.90;;;9.30;99.90;;;;;;5082676;28;20036;-76
2023/05/02 04:01:51;;;;;;;3.30;1.60;;;9.20;99.90;;;;;;5089746;28;20042;-76
2023/05/02 04:04:17;;;;;;;3.15;1.90;;;9.20;99.90;;;;;;5087791;28;20029;-76
2023/05/02 04:06:42;;;;;;;5.50;1.52;;;9.10;99.90;;;;;;5084140;28;20369;-76
2023/05/02 04:09:08;;;;;;;2.13;1.30;;;9.10;99.90;;;;;;5083903;28;20071;-76
2023/05/02 04:11:34;;;;;;;2.67;1.70;;;9.10;99.90;;;;;;5083195;28;20039;-76
2023/05/02 04:13:59;;;;;;;2.97;2.03;;;9.00;99.90;;;;;;5079165;28;20024;-76
2023/05/02 04:16:25;;;;;;;3.25;2.03;;;9.00;99.90;;;;;;5083562;28;20032;-76
2023/05/02 04:18:51;;;;;;;2.53;2.00;;;8.90;99.90;;;;;;5080915;28;20032;-76
2023/05/02 04:21:17;;;;;;;2.50;1.58;;;8.90;99.90;;;;;;5078988;28;20119;-75
2023/05/02 04:23:42;;;;;;;2.40;1.35;;;9.00;99.90;;;;;;5091478;28;20032;-75
2023/05/02 04:26:08;;;;;;;3.33;1.83;;;9.00;99.90;;;;;;5082457;28;20374;-78
2023/05/02 04:28:34;;;;;;;2.47;1.60;;;9.00;99.90;;;;;;5092778;28;20036;-78
2023/05/02 04:31:02;;;;;;;2.88;1.90;;;9.00;99.90;;;;;;5084771;22;20520;-74
2023/05/02 04:33:27;;;;;;;2.78;2.05;;;9.00;99.90;;;;;;5054819;28;20021;-73
2023/05/02 04:35:53;;;;;;;4.53;2.53;;;9.00;99.90;;;;;;5054294;28;20499;-74
2023/05/02 04:38:18;;;;;;;5.43;2.90;;;9.00;99.90;;;;;;5054763;28;20033;-74
2023/05/02 04:40:44;;;;;;;3.20;2.13;;;9.10;99.90;;;;;;5036950;28;20033;-74
2023/05/02 04:43:10;;;;;;;2.33;1.65;;;9.10;99.90;;;;;;5054926;28;20099;-74
2023/05/02 04:45:36;;;;;;;2.47;1.60;;;9.10;99.90;;;;;;5053506;28;20370;-73
2023/05/02 04:48:02;;;;;;;2.83;1.63;;;9.10;99.90;;;;;;5054622;28;20028;-73
2023/05/02 04:50:28;;;;;;;2.78;1.80;;;9.10;99.90;;;;;;5054107;28;20036;-73
2023/05/02 04:52:54;;;;;;;2.53;1.92;;;9.10;99.90;;;;;;5054672;28;20104;-74
2023/05/02 04:55:20;;;;;;;4.72;2.88;;;9.10;99.90;;;;;;5054629;28;20418;-74
2023/05/02 04:57:50;;;;;;;7.32;4.50;;;9.10;99.90;;;;;;5054290;28;20029;-74
2023/05/02 05:00:16;;;;;;;6.35;3.67;;;9.10;99.90;;;;;;5054428;28;20048;-73
2023/05/02 05:02:42;;;;;;;6.05;2.60;;;9.10;99.90;;;;;;5053116;28;20392;-73
2023/05/02 05:05:08;;;;;;;3.28;2.20;;;9.10;99.90;;;;;;5054093;28;20036;-73
2023/05/02 05:07:33;;;;;;;3.78;2.60;;;9.10;99.90;;;;;;5054223;28;20029;-73
2023/05/02 05:10:02;;;;;;;3.97;3.58;;;9.10;99.90;;;;;;5054321;28;20033;-74
2023/05/02 05:12:28;;;;;;;2.72;2.20;;;9.10;99.90;;;;;;5054488;28;20401;-74
2023/05/02 05:14:53;;;;;;;2.53;1.60;;;9.10;99.90;;;;;;5052829;28;20110;-74
2023/05/02 05:17:19;;;;;;;2.30;1.58;;;9.10;99.90;;;;;;5052934;28;20064;-73
2023/05/02 05:19:45;;;;;;;3.15;2.05;;;9.00;99.90;;;;;;5054253;28;20032;-74
2023/05/02 05:22:10;;;;;;;2.03;1.20;;;9.10;99.90;;;;;;5052455;28;20369;-74
2023/05/02 05:24:37;;;;;;;2.97;1.30;;;9.10;99.90;;;;;;5054266;28;20048;-74
2023/05/02 05:27:02;;;;;;;2.65;1.55;;;9.00;99.90;;;;;;5054199;28;20112;-74
2023/05/02 05:29:31;;;;;;;2.40;1.70;;;9.00;99.90;;;;;;5052473;28;20195;-74
2023/05/02 05:31:57;;;;;;;1.92;1.30;;;9.00;99.90;;;;;;5052460;28;20051;-74
2023/05/02 05:34:23;;;;;;;2.20;1.40;;;8.90;99.90;;;;;;5053286;28;20037;-73
2023/05/02 05:36:49;;;;;;;4.22;1.92;;;9.00;99.90;;;;;;5053672;28;20032;-73
2023/05/02 05:39:15;;;;;;;3.97;2.13;;;8.90;99.90;;;;;;5054464;28;20090;-74
2023/05/02 05:41:42;;;;;;;4.05;1.70;;;9.00;99.90;;;;;;5053697;28;20056;-74
2023/05/02 05:44:07;;;;;;;3.17;1.70;;;8.90;99.90;;;;;;5052844;28;20021;-73
2023/05/02 05:46:33;;;;;;;2.47;1.50;;;8.90;99.90;;;;;;5052581;28;20040;-74
2023/05/02 05:48:59;;;;;;;2.80;1.60;;;9.00;99.90;;;;;;5053293;28;20120;-74
2023/05/02 05:51:26;;;;;;;2.25;1.25;;;9.00;99.90;;;;;;5053321;28;20033;-73
2023/05/02 05:53:52;;;;;;;2.60;1.40;;;9.00;99.90;;;;;;5053516;28;20505;-73
2023/05/02 05:56:18;;;;;;;2.80;1.60;;;9.00;99.90;;;;;;5054044;28;20474;-74
2023/05/02 05:58:44;;;;;;;2.33;1.33;;;9.00;99.90;;;;;;5053814;28;20037;-73
2023/05/02 06:01:10;;;;;;;2.38;1.30;;;9.00;99.90;;;;;;5052147;28;20489;-74
2023/05/02 06:03:35;;;;;;;1.88;1.20;;;9.10;99.90;;;;;;5053338;28;20104;-74
2023/05/02 06:06:01;;;;;;;2.65;1.00;;;9.00;99.90;;;;;;5053137;28;20108;-73
2023/05/02 06:08:27;;;;;;;3.70;1.40;;;9.00;99.90;;;;;;5053086;28;20053;-73
2023/05/02 06:10:52;;;;;;;2.20;1.23;;;9.00;99.90;;;;;;5053256;28;20032;-74
2023/05/02 06:13:18;;;;;;;2.97;1.50;;;9.10;99.90;;;;;;5053523;28;20033;-74
2023/05/02 06:15:44;;;;;;;1.90;1.20;;;9.10;99.90;;;;;;5052202;28;20036;-74
2023/05/02 06:18:09;;;;;;;1.48;0.95;;;9.10;99.90;;;;;;5053406;28;20025;-74
2023/05/02 06:20:36;;;;;;;2.50;1.00;;;9.10;99.90;;;;;;5052923;28;20116;-73
2023/05/02 06:23:01;;;;;;;1.38;0.88;;;9.10;99.90;;;;;;5053169;28;20082;-74
2023/05/02 06:25:27;;;;;;;1.50;0.95;;;9.10;99.90;;;;;;5053715;28;20032;-74
2023/05/02 06:27:53;;;;;;;2.00;1.00;;;9.10;99.90;;;;;;5053377;28;20477;-74
2023/05/02 06:30:19;;;;;;;1.73;1.23;;;9.20;99.90;;;;;;5052840;28;20033;-74
2023/05/02 06:32:45;;;;;;;1.58;0.90;;;9.20;99.90;;;;;;5053091;28;20021;-73
2023/05/02 06:35:11;;;;;;;1.35;0.90;;;9.20;99.90;;;;;;5052848;28;20151;-73
2023/05/02 06:37:37;;;;;;;1.30;0.80;;;9.30;99.90;;;;;;5051875;28;20029;-74
2023/05/02 06:40:04;;;;;;;1.20;0.80;;;9.30;99.90;;;;;;5052969;28;20036;-73
2023/05/02 06:42:29;;;;;;;2.00;1.40;;;9.40;99.90;;;;;;5053002;28;20021;-74
2023/05/02 06:44:55;;;;;;;1.70;1.15;;;9.40;99.90;;;;;;5053047;28;20083;-74
2023/05/02 06:47:23;;;;;;;2.67;1.42;;;9.40;99.90;;;;;;5053563;28;20482;-74
2023/05/02 06:49:52;;;;;;;3.10;1.38;;;9.50;99.90;;;;;;5035262;28;20233;-74
2023/05/02 06:52:18;;;;;;;2.10;1.48;;;9.50;99.90;;;;;;5052761;28;20025;-73
2023/05/02 06:54:44;;;;;;;2.05;1.40;;;9.60;99.90;;;;;;5052897;28;20384;-74
2023/05/02 06:57:10;;;;;;;3.08;1.95;;;9.60;99.90;;;;;;5052904;28;20025;-74
2023/05/02 06:59:36;;;;;;;2.97;2.33;;;9.60;99.90;;;;;;5054613;28;20507;-74
2023/05/02 07:02:02;;;;;;;3.00;2.08;;;9.70;99.90;;;;;;5056662;28;20082;-74
2023/05/02 07:04:27;;;;;;;2.00;1.30;;;9.70;99.90;;;;;;5056717;28;20486;-74
2023/05/02 07:06:53;;;;;;;3.40;1.08;;;9.70;99.90;;;;;;5056413;28;20442;-73
2023/05/02 07:09:19;;;;;;;2.42;1.48;;;9.80;99.90;;;;;;5056545;28;20029;-74
2023/05/02 07:11:44;;;;;;;1.35;0.85;;;9.80;99.90;;;;;;5056501;28;20021;-74
2023/05/02 07:14:10;;;;;;;1.42;0.75;;;9.80;99.90;;;;;;5056462;28;20392;-73
2023/05/02 07:16:35;;;;;;;1.00;0.60;;;9.90;99.90;;;;;;5055584;28;20491;-74
2023/05/02 07:19:03;;;;;;;1.38;0.88;;;9.90;99.90;;;;;;5056318;28;20548;-74
2023/05/02 07:21:29;;;;;;;1.25;0.77;;;9.90;99.90;;;;;;5056128;28;20028;-73
2023/05/02 07:23:56;;;;;;;2.55;0.80;;;9.80;99.90;;;;;;5056549;28;20523;-74
2023/05/02 07:26:23;;;;;;;1.27;0.68;;;9.80;99.90;;;;;;5056280;28;20488;-74
2023/05/02 07:28:48;;;;;;;1.10;0.60;;;9.80;99.90;;;;;;5055958;28;20028;-74
2023/05/02 07:31:14;;;;;;;1.00;0.63;;;9.90;99.90;;;;;;5056099;28;20033;-74
2023/05/02 07:33:40;;;;;;;3.05;2.05;;;9.90;99.90;;;;;;5055779;28;20025;-73
2023/05/02 07:36:05;;;;;;;2.92;2.10;;;9.90;99.90;;;;;;5052461;28;20036;-73
2023/05/02 07:38:31;;;;;;;4.60;2.78;;;9.80;99.90;;;;;;5038281;28;20123;-74
2023/05/02 07:40:59;;;;;;;6.22;5.22;;;9.90;99.90;;;;;;5055051;28;20033;-74
2023/05/02 07:43:25;;;;;;;5.82;4.35;;;9.90;99.90;;;;;;5054966;28;20025;-74
2023/05/02 07:45:51;;;;;;;3.70;2.65;;;9.90;99.90;;;;;;5056146;28;20021;-74
2023/05/02 07:48:16;;;;;;;2.65;1.77;;;10.00;99.90;;;;;;5055433;28;20409;-73
2023/05/02 07:50:42;;;;;;;1.92;1.20;;;10.00;99.90;;;;;;5055332;28;20412;-73
2023/05/02 07:53:08;;;;;;;2.75;1.20;;;10.00;99.90;;;;;;5054499;28;20032;-74
2023/05/02 07:55:34;;;;;;;1.80;1.20;;;10.00;99.90;;;;;;5055961;28;20017;-74
2023/05/02 07:57:59;;;;;;;5.75;3.92;;;10.00;99.90;;;;;;5055600;28;20035;-74
2023/05/02 08:00:25;;;;;;;6.70;3.97;;;10.00;99.90;;;;;;5055735;28;20370;-74
2023/05/02 08:02:51;;;;;;;4.90;3.30;;;10.00;99.90;;;;;;5055784;28;20025;-74
2023/05/02 08:05:16;;;;;;;13.70;9.48;;;10.10;99.90;;;;;;5055473;28;20064;-74
2023/05/02 08:07:42;;;;;;;24.42;11.90;;;10.20;99.90;;;;;;5055197;28;20075;-73
2023/05/02 08:10:09;;;;;;;14.18;7.97;;;10.30;99.90;;;;;;5054459;28;20108;-72
2023/05/02 08:12:39;;;;;;;19.58;9.02;;;10.40;99.90;;;;;;5055364;28;20021;-72
2023/05/02 08:15:10;;;;;;;28.00;12.65;;;10.50;99.90;;;;;;5055313;28;20052;-72
2023/05/02 08:17:36;;;;;;;24.40;10.77;;;10.50;99.90;;;;;;5054031;28;20120;-72
2023/05/02 08:20:02;;;;;;;16.10;6.82;;;10.60;99.90;;;;;;5053907;28;20117;-71
2023/05/02 08:22:28;;;;;;;13.07;5.72;;;10.70;99.90;;;;;;5053859;28;20052;-71
2023/05/02 08:24:53;;;;;;;7.55;3.88;;;10.80;99.90;;;;;;5054110;28;20033;-73
2023/05/02 08:27:19;;;;;;;4.50;1.75;;;10.90;99.90;;;;;;5054983;28;20083;-72
2023/05/02 08:29:45;;;;;;;3.80;1.77;;;11.00;99.90;;;;;;5053670;28;20021;-71
2023/05/02 08:32:10;;;;;;;3.38;2.20;;;11.00;99.90;;;;;;5055272;28;20028;-73
2023/05/02 08:34:36;;;;;;;3.90;2.53;;;11.10;99.90;;;;;;5054892;28;20477;-72
2023/05/02 08:37:08;;;;;;;2.83;1.55;;;11.00;99.90;;;;;;5054501;28;20037;-72
2023/05/02 08:39:34;;;;;;;2.63;1.75;;;11.00;99.90;;;;;;5054687;28;20021;-72
2023/05/02 08:42:00;;;;;;;2.17;1.30;;;10.90;99.90;;;;;;5055124;28;20036;-72
2023/05/02 08:44:25;;;;;;;1.98;1.17;;;10.90;99.90;;;;;;5054815;28;20469;-72
2023/05/02 08:46:52;;;;;;;2.25;1.20;;;11.00;99.90;;;;;;5054746;28;20158;-73
2023/05/02 08:49:19;;;;;;;2.75;1.20;;;11.00;99.90;;;;;;5053295;28;20060;-72
2023/05/02 08:51:50;;;;;;;1.88;1.20;;;11.20;99.90;;;;;;5053140;28;20043;-72
2023/05/02 08:54:16;;;;;;;1.80;1.20;;;11.30;99.90;;;;;;5054664;28;20048;-73
2023/05/02 08:56:42;;;;;;;1.65;1.02;;;11.40;99.90;;;;;;5054829;28;20025;-73
2023/05/02 08:59:08;;;;;;;1.58;1.17;;;11.50;99.90;;;;;;5054755;28;20024;-72
2023/05/02 09:01:36;;;;;;;3.05;1.00;;;11.50;99.90;;;;;;5053146;28;20029;-73
2023/05/02 09:04:03;;;;;;;1.38;0.90;;;11.70;99.90;;;;;;5054364;28;20029;-73
2023/05/02 09:06:29;;;;;;;4.32;1.80;;;11.70;99.90;;;;;;5054200;28;20056;-72
2023/05/02 09:08:59;;;;;;;2.15;1.27;;;11.70;99.90;;;;;;5054162;28;20053;-72
2023/05/02 09:11:25;;;;;;;2.57;1.33;;;11.70;99.90;;;;;;5054580;28;20021;-73
2023/05/02 09:13:51;;;;;;;3.38;1.40;;;11.90;99.90;;;;;;5054200;28;20082;-73
2023/05/02 09:16:25;;;;;;;2.53;1.17;;;12.00;99.90;;;;;;5054710;28;20032;-73
2023/05/02 09:18:55;;;;;;;2.10;1.20;;;12.10;99.90;;;;;;5054545;28;20013;-73
2023/05/02 09:21:36;;;;;;;2.75;1.10;;;12.20;99.90;;;;;;5052581;28;20024;-72
2023/05/02 09:24:12;;;;;;;2.28;1.35;;;12.30;99.90;;;;;;5054043;28;20481;-73
2023/05/02 09:26:39;;;;;;;8.80;4.93;;;12.40;99.90;;;;;;5054000;28;20025;-73
2023/05/02 09:29:05;;;;;;;6.40;3.70;;;12.40;99.90;;;;;;5053772;28;20060;-72
2023/05/02 09:31:35;;;;;;;2.35;1.73;;;12.40;99.90;;;;;;5053795;28;20087;-73
2023/05/02 09:34:15;;;;;;;2.80;1.27;;;12.40;99.90;;;;;;5053096;28;20017;-72
2023/05/02 09:36:43;;;;;;;1.80;1.20;;;12.30;99.90;;;;;;5053908;28;20824;-72
2023/05/02 09:39:14;;;;;;;2.20;1.50;;;12.20;99.90;;;;;;5053663;28;20085;-73
2023/05/02 09:41:44;;;;;;;2.95;1.95;;;12.20;99.90;;;;;;5054037;28;20112;-73
2023/05/02 09:44:14;;;;;;;2.40;1.67;;;12.20;99.90;;;;;;5053650;28;20040;-73
2023/05/02 09:46:48;;;;;;;2.28;1.40;;;12.30;99.90;;;;;;5053690;28;20025;-73
2023/05/02 09:49:17;;;;;;;2.88;1.35;;;12.30;99.90;;;;;;5053777;28;20062;-72
2023/05/02 09:51:45;;;;;;;3.30;1.63;;;12.30;99.90;;;;;;5053520;28;20048;-72
2023/05/02 09:54:12;;;;;;;4.28;2.65;;;12.30;99.90;;;;;;5053536;28;20029;-72
2023/05/02 09:56:56;;;;;;;3.13;1.63;;;12.30;99.90;;;;;;5053479;28;20021;-73
2023/05/02 09:59:22;;;;;;;3.47;1.80;;;12.20;99.90;;;;;;5053616;28;20104;-73
2023/05/02 10:01:56;;;;;;;2.38;1.50;;;12.30;99.90;;;;;;5053765;28;20384;-73
2023/05/02 10:04:21;;;;;;;2.72;1.60;;;12.30;99.90;;;;;;5053448;28;20028;-72
2023/05/02 10:06:51;;;;;;;3.13;1.85;;;12.30;99.90;;;;;;5051862;28;20029;-72
2023/05/02 10:09:19;;;;;;;3.83;1.73;;;12.30;99.90;;;;;;5051996;28;20025;-73
2023/05/02 10:11:45;;;;;;;4.28;1.58;;;12.30;99.90;;;;;;5053297;28;20411;-73
2023/05/02 10:14:13;;;;;;;5.65;1.90;;;12.30;99.90;;;;;;5053270;28;20021;-73
2023/05/02 10:16:48;;;;;;;2.72;1.88;;;12.20;99.90;;;;;;5052098;28;20017;-73
2023/05/02 10:19:22;;;;;;;2.97;1.95;;;12.20;99.90;;;;;;5053198;28;20044;-73
2023/05/02 10:21:49;;;;;;;2.35;1.38;;;12.20;99.90;;;;;;5053025;28;20025;-72
2023/05/02 10:24:16;;;;;;;2.03;1.13;;;12.10;99.90;;;;;;5076822;23;20060;-75
2023/05/02 10:26:43;;;;;;;2.17;1.40;;;12.00;99.90;;;;;;5053543;28;20111;-76
2023/05/02 10:29:10;;;;;;;2.45;1.52;;;12.00;99.90;;;;;;5053119;28;20037;-76
2023/05/02 10:31:38;;;;;;;5.80;1.75;;;11.90;99.90;;;;;;5053430;28;20071;-76
2023/05/02 10:34:06;;;;;;;3.58;1.77;;;11.80;99.90;;;;;;5055524;28;20075;-75
2023/05/02 10:36:32;;;;;;;2.47;1.70;;;11.80;99.90;;;;;;5056325;28;20400;-75
2023/05/02 10:38:59;;;;;;;2.30;1.63;;;11.80;99.90;;;;;;5055864;28;20451;-75
2023/05/02 10:41:28;;;;;;;3.38;1.92;;;11.80;99.90;;;;;;5057033;28;20025;-75
2023/05/02 10:43:54;;;;;;;2.67;1.80;;;11.80;99.90;;;;;;5057216;28;20071;-75
2023/05/02 10:46:39;;;;;;;2.72;1.80;;;11.80;99.90;;;;;;5039192;28;20024;-75
2023/05/02 10:49:09;;;;;;;3.05;2.33;;;11.90;99.90;;;;;;5056808;28;20033;-75
2023/05/02 10:51:40;;;;;;;2.55;2.00;;;12.00;99.90;;;;;;5056713;28;20377;-75
2023/05/02 10:54:18;;;;;;;2.05;1.67;;;12.10;99.90;;;;;;5057072;28;20028;-75
2023/05/02 10:57:02;;;;;;;3.10;1.90;;;12.30;99.90;;;;;;5057164;28;20028;-75
2023/05/02 10:59:37;;;;;;;11.20;8.13;;;12.50;99.90;;;;;;5056764;28;20024;-74
2023/05/02 11:02:04;;;;;;;7.80;6.22;;;12.50;99.90;;;;;;5056745;28;20025;-74
2023/05/02 11:05:02;;;;;;;6.43;4.70;;;12.50;99.90;;;;;;5055418;28;20484;-74
2023/05/02 11:07:30;;;;;;;3.60;2.88;;;12.50;99.90;;;;;;5056731;28;20384;-74
2023/05/02 11:10:14;;;;;;;4.13;2.47;;;12.40;99.90;;;;;;5056481;28;20032;-74
2023/05/02 11:12:48;;;;;;;2.80;1.90;;;12.30;99.90;;;;;;5056519;28;20025;-74
2023/05/02 11:15:28;;;;;;;3.50;2.30;;;12.30;99.90;;;;;;5056407;28;20029;-74
2023/05/02 11:18:06;;;;;;;3.10;2.13;;;12.30;99.90;;;;;;5056466;28;20048;-74
2023/05/02 11:20:33;;;;;;;3.03;2.20;;;12.40;99.90;;;;;;5056962;28;20051;-74
2023/05/02 11:23:24;;;;;;;2.65;1.65;;;12.40;99.90;;;;;;5056293;28;20112;-74
2023/05/02 11:25:59;;;;;;;4.20;1.60;;;12.40;99.90;;;;;;5056165;28;20036;-74
2023/05/02 11:28:40;;;;;;;2.80;2.00;;;12.40;99.90;;;;;;5056512;28;20072;-74
2023/05/02 11:31:29;;;;;;;4.07;2.00;;;12.30;99.90;;;;;;5055115;28;20534;-73
2023/05/02 11:34:00;;;;;;;3.58;2.30;;;12.20;99.90;;;;;;5054467;28;20017;-74
2023/05/02 11:36:32;;;;;;;6.03;3.13;;;12.10;99.90;;;;;;5056162;28;20025;-73
2023/05/02 11:38:59;;;;;;;5.80;3.80;;;12.00;99.90;;;;;;5056284;28;20258;-74
2023/05/02 11:41:43;;;;;;;5.85;2.85;;;12.00;99.90;;;;;;5055966;28;20025;-73
2023/05/02 11:44:09;;;;;;;4.53;2.53;;;11.80;99.90;;;;;;5055698;28;20381;-74
2023/05/02 11:46:39;;;;;;;5.75;3.05;;;11.70;99.90;;;;;;5055408;28;20021;-73
2023/05/02 11:49:06;;;;;;;3.75;2.35;;;11.60;99.90;;;;;;5054576;28;20029;-73
2023/05/02 11:51:34;;;;;;;3.40;2.25;;;11.60;99.90;;;;;;5055609;28;20025;-73
2023/05/02 11:53:59;;;;;;;3.13;2.25;;;11.60;99.90;;;;;;5055902;28;20017;-73
2023/05/02 11:56:25;;;;;;;3.35;2.17;;;11.70;99.90;;;;;;5055660;28;20032;-74
2023/05/02 11:59:02;;;;;;;5.65;2.75;;;11.80;99.90;;;;;;5055720;28;20029;-72
2023/05/02 12:01:29;;;;;;;5.00;3.10;;;11.70;99.90;;;;;;5055702;28;20056;-72
2023/05/02 12:04:06;;;;;;;3.75;2.50;;;11.70;99.90;;;;;;5054923;28;20021;-72
2023/05/02 12:06:32;;;;;;;3.35;1.80;;;11.50;99.90;;;;;;5055235;28;20028;-72
2023/05/02 12:09:09;;;;;;;3.58;2.20;;;11.50;99.90;;;;;;5055211;28;20060;-72
2023/05/02 12:11:36;;;;;;;4.03;2.40;;;11.40;99.90;;;;;;5054957;28;20055;-71
2023/05/02 12:14:03;;;;;;;4.75;2.78;;;11.40;99.90;;;;;;5055707;28;20048;-72
2023/05/02 12:16:29;;;;;;;4.63;3.67;;;11.40;99.90;;;;;;5054097;28;20540;-71
2023/05/02 12:18:58;;;;;;;4.25;3.03;;;11.50;99.90;;;;;;5054072;28;20036;-71
2023/05/02 12:21:25;;;;;;;3.85;2.88;;;11.40;99.90;;;;;;5055321;28;20106;-72
2023/05/02 12:23:52;;;;;;;5.22;3.08;;;11.40;99.90;;;;;;5055670;28;20489;-72
2023/05/02 12:26:28;;;;;;;4.97;3.08;;;11.30;99.90;;;;;;5054634;28;20538;-73
2023/05/02 12:28:55;;;;;;;4.72;3.00;;;11.30;99.90;;;;;;5054238;28;20040;-72
2023/05/02 12:31:21;;;;;;;4.55;2.88;;;11.40;99.90;;;;;;5055153;28;20044;-72
2023/05/02 12:33:49;;;;;;;4.35;2.50;;;11.50;99.90;;;;;;5055002;28;20017;-73
2023/05/02 12:36:14;;;;;;;2.90;2.28;;;11.60;99.90;;;;;;5054432;28;20025;-72
2023/05/02 12:38:48;;;;;;;4.22;2.08;;;11.80;99.90;;;;;;5054938;28;20020;-73
2023/05/02 12:41:13;;;;;;;3.70;2.50;;;11.90;99.90;;;;;;5053681;28;20029;-73
2023/05/02 12:43:46;;;;;;;3.05;2.35;;;12.00;99.90;;;;;;5054855;28;20087;-73
2023/05/02 12:46:11;;;;;;;3.33;2.30;;;12.00;99.90;;;;;;5054737;28;20064;-73
2023/05/02 12:48:37;;;;;;;4.82;2.70;;;12.10;99.90;;;;;;5054809;28;20057;-73
2023/05/02 12:51:03;;;;;;;3.95;2.72;;;12.00;99.90;;;;;;5053293;28;20075;-73
2023/05/02 12:53:43;;;;;;;3.42;2.10;;;11.90;99.90;;;;;;5054388;28;20021;-73
2023/05/02 12:56:09;;;;;;;3.63;2.08;;;11.90;99.90;;;;;;5054181;28;20017;-73
2023/05/02 12:58:46;;;;;;;2.95;2.00;;;11.80;99.90;;;;;;5054821;28;20433;-73
2023/05/02 13:01:15;;;;;;;3.63;2.30;;;11.80;99.90;;;;;;5053195;28;20029;-73
2023/05/02 13:03:42;;;;;;;3.53;2.70;;;11.80;99.90;;;;;;5054416;28;20029;-73